createdAt,value
2018-07-13T00:00:56.256Z,99.90
2018-07-13T00:03:24.704Z,99.90
2018-07-13T00:05:53.090Z,99.90
2018-07-13T00:08:21.535Z,99.90
2018-07-13T00:10:49.994Z,99.90
2018-07-13T00:13:18.374Z,99.90
2018-07-13T00:15:58.003Z,99.90
2018-07-13T00:18:26.396Z,99.90
2018-07-13T00:20:54.870Z,99.90
2018-07-13T00:23:23.265Z,99.90
2018-07-13T00:25:52.029Z,99.90
2018-07-13T00:28:20.480Z,99.90
2018-07-13T00:30:48.894Z,99.90
2018-07-13T00:33:17.465Z,99.90
2018-07-13T00:35:45.928Z,99.90
2018-07-13T00:38:14.344Z,99.90
2018-07-13T00:40:42.805Z,99.90
2018-07-13T00:43:11.214Z,99.90
2018-07-13T00:45:39.869Z,99.90
2018-07-13T00:48:08.253Z,99.90
2018-07-13T00:50:36.707Z,99.90
2018-07-13T00:53:05.121Z,99.90
2018-07-13T00:58:01.726Z,99.90
2018-07-13T01:00:32.152Z,99.90
2018-07-13T01:03:01.934Z,99.90
2018-07-13T01:05:30.627Z,99.90
2018-07-13T01:07:59.097Z,99.90
2018-07-13T01:10:27.661Z,99.90
2018-07-13T01:12:56.163Z,99.90
2018-07-13T01:15:24.607Z,99.90
2018-07-13T01:17:53.027Z,99.90
2018-07-13T01:20:21.473Z,99.90
2018-07-13T01:22:49.984Z,99.90
2018-07-13T01:25:18.411Z,99.90
2018-07-13T01:27:46.867Z,99.90
2018-07-13T01:30:15.245Z,99.90
2018-07-13T01:32:43.653Z,99.90
2018-07-13T01:35:12.067Z,99.90
2018-07-13T01:37:40.486Z,99.90
2018-07-13T01:40:08.943Z,99.90
2018-07-13T01:42:37.348Z,99.90
2018-07-13T01:45:05.838Z,99.90
2018-07-13T01:47:34.502Z,99.90
2018-07-13T01:50:03.122Z,99.90
2018-07-13T01:52:31.575Z,99.90
2018-07-13T01:55:00.027Z,99.90
2018-07-13T01:57:28.449Z,99.90
2018-07-13T01:59:56.914Z,99.90
2018-07-13T02:02:25.351Z,99.90
2018-07-13T02:07:22.057Z,99.90
2018-07-13T02:09:52.735Z,99.90
2018-07-13T02:12:21.292Z,99.90
2018-07-13T02:14:50.243Z,99.90
2018-07-13T02:17:18.661Z,99.90
2018-07-13T02:19:47.485Z,99.90
2018-07-13T02:22:15.910Z,99.90
2018-07-13T02:24:45.139Z,99.90
2018-07-13T02:27:13.841Z,99.90
2018-07-13T02:29:42.409Z,99.90
2018-07-13T02:32:10.947Z,99.90
2018-07-13T02:34:39.387Z,99.90
2018-07-13T02:37:07.911Z,99.90
2018-07-13T02:39:36.491Z,99.90
2018-07-13T02:42:04.929Z,99.90
2018-07-13T02:44:33.382Z,99.90
2018-07-13T02:47:01.802Z,99.90
2018-07-13T02:49:30.346Z,99.90
2018-07-13T02:51:58.919Z,99.90
2018-07-13T02:54:27.421Z,99.90
2018-07-13T02:56:55.837Z,99.90
2018-07-13T02:59:24.405Z,99.90
2018-07-13T03:04:21.151Z,99.90
2018-07-13T03:06:49.657Z,99.90
2018-07-13T03:09:18.264Z,99.90
2018-07-13T03:11:46.720Z,99.90
2018-07-13T03:14:15.175Z,99.90
2018-07-13T03:16:43.624Z,99.90
2018-07-13T03:19:12.065Z,99.90
2018-07-13T03:21:40.535Z,99.90
2018-07-13T03:24:09.073Z,99.90
2018-07-13T03:26:37.565Z,99.90
2018-07-13T03:29:05.999Z,99.90
2018-07-13T03:31:34.485Z,99.90
2018-07-13T03:34:02.904Z,99.90
2018-07-13T03:36:31.352Z,99.90
2018-07-13T03:38:59.883Z,99.90
2018-07-13T03:41:28.430Z,99.90
2018-07-13T03:43:56.900Z,99.90
2018-07-13T03:46:25.373Z,99.90
2018-07-13T03:48:53.796Z,99.90
2018-07-13T03:51:22.294Z,99.90
2018-07-13T03:53:50.780Z,99.90
2018-07-13T03:56:19.206Z,99.90
2018-07-13T03:58:47.781Z,99.90
2018-07-13T04:01:16.264Z,99.90
2018-07-13T04:03:44.720Z,99.90
2018-07-13T04:06:13.156Z,99.90
2018-07-13T04:08:41.568Z,99.90
2018-07-13T04:11:09.986Z,99.90
2018-07-13T04:13:38.451Z,99.90
2018-07-13T04:16:07.074Z,99.90
2018-07-13T04:18:35.586Z,99.90
2018-07-13T04:21:04.034Z,99.90
2018-07-13T04:23:32.553Z,99.90
2018-07-13T04:26:01.021Z,99.90
2018-07-13T04:28:29.581Z,99.90
2018-07-13T04:30:58.065Z,99.90
2018-07-13T04:33:26.540Z,99.90
2018-07-13T04:35:55.150Z,99.90
2018-07-13T04:38:23.589Z,99.90
2018-07-13T04:40:52.120Z,99.90
2018-07-13T04:43:20.523Z,99.90
2018-07-13T04:45:49.873Z,99.90
2018-07-13T04:48:18.393Z,99.90
2018-07-13T04:50:46.955Z,99.90
2018-07-13T04:53:15.858Z,99.90
2018-07-13T04:55:44.362Z,99.90
2018-07-13T04:58:13.354Z,99.90
2018-07-13T05:00:41.940Z,99.90
2018-07-13T05:03:10.637Z,99.90
2018-07-13T05:05:39.289Z,99.90
2018-07-13T05:08:07.793Z,99.90
2018-07-13T05:10:36.287Z,99.90
2018-07-13T05:13:04.911Z,99.90
2018-07-13T05:15:33.635Z,99.90
2018-07-13T05:18:02.258Z,99.90
2018-07-13T05:20:30.824Z,99.90
2018-07-13T05:22:59.355Z,99.90
2018-07-13T05:25:27.936Z,99.90
2018-07-13T05:27:56.904Z,99.90
2018-07-13T05:30:25.582Z,99.90
2018-07-13T05:32:54.256Z,99.90
2018-07-13T05:35:22.923Z,99.90
2018-07-13T05:37:51.595Z,99.90
2018-07-13T05:40:20.358Z,99.90
2018-07-13T05:42:49.090Z,99.90
2018-07-13T05:45:17.959Z,99.90
2018-07-13T05:47:46.704Z,99.90
2018-07-13T05:50:15.506Z,99.90
2018-07-13T05:52:45.049Z,99.90
2018-07-13T05:55:14.302Z,99.90
2018-07-13T05:57:43.014Z,99.90
2018-07-13T06:00:11.774Z,99.90
2018-07-13T06:02:40.404Z,99.90
2018-07-13T06:05:09.210Z,99.90
2018-07-13T06:07:39.806Z,99.90
2018-07-13T06:10:08.523Z,99.90
2018-07-13T06:12:37.295Z,99.90
2018-07-13T06:15:06.508Z,99.90
2018-07-13T06:17:35.303Z,99.90
2018-07-13T06:20:04.055Z,99.90
2018-07-13T06:22:33.061Z,99.90
2018-07-13T06:25:01.600Z,99.90
2018-07-13T06:27:30.195Z,99.90
2018-07-13T06:29:58.751Z,99.90
2018-07-13T06:32:28.145Z,99.90
2018-07-13T06:34:56.829Z,99.90
2018-07-13T06:37:25.384Z,99.90
2018-07-13T06:39:54.103Z,99.90
2018-07-13T06:42:22.992Z,99.90
2018-07-13T06:44:51.563Z,99.90
2018-07-13T06:47:20.158Z,99.90
2018-07-13T06:49:48.846Z,99.90
2018-07-13T06:52:17.535Z,99.90
2018-07-13T06:54:46.430Z,99.90
2018-07-13T06:59:27.265Z,99.90
2018-07-13T07:01:55.915Z,99.90
2018-07-13T07:04:28.554Z,99.90
2018-07-13T07:06:57.738Z,99.90
2018-07-13T07:09:27.489Z,99.90
2018-07-13T07:12:12.201Z,99.90
2018-07-13T07:14:40.793Z,98.50
2018-07-13T07:17:09.345Z,93.10
2018-07-13T07:19:37.860Z,88.20
2018-07-13T07:22:06.737Z,79.00
2018-07-13T07:24:36.046Z,70.80
2018-07-13T07:27:05.423Z,64.80
2018-07-13T07:29:33.990Z,60.10
2018-07-13T07:32:02.531Z,57.70
2018-07-13T07:34:31.230Z,56.40
2018-07-13T07:36:59.714Z,55.40
2018-07-13T07:39:28.305Z,53.40
2018-07-13T07:41:58.592Z,52.30
2018-07-13T07:44:28.014Z,52.30
2018-07-13T07:46:56.872Z,50.20
2018-07-13T07:49:25.483Z,49.90
2018-07-13T07:51:54.100Z,49.50
2018-07-13T07:54:22.590Z,48.10
2018-07-13T07:56:51.307Z,47.80
2018-07-13T07:59:20.367Z,47.40
2018-07-13T08:01:49.254Z,46.80
2018-07-13T08:04:17.901Z,45.90
2018-07-13T08:06:46.712Z,44.80
2018-07-13T08:09:15.492Z,43.00
2018-07-13T08:11:45.242Z,42.40
2018-07-13T08:14:14.057Z,42.40
2018-07-13T08:21:43.136Z,39.40
2018-07-13T08:24:13.648Z,38.00
2018-07-13T08:26:42.313Z,39.50
2018-07-13T08:29:12.615Z,40.20
2018-07-13T08:31:41.223Z,40.80
2018-07-13T08:34:09.728Z,41.30
2018-07-13T08:36:38.591Z,40.00
2018-07-13T08:39:08.347Z,38.80
2018-07-13T08:41:36.885Z,37.40
2018-07-13T08:44:05.553Z,37.50
2018-07-13T08:46:34.007Z,37.20
2018-07-13T08:49:02.684Z,35.50
2018-07-13T08:51:31.266Z,35.60
2018-07-13T08:53:59.883Z,34.40
2018-07-13T08:56:28.522Z,34.00
2018-07-13T08:58:57.162Z,33.80
2018-07-13T09:01:25.946Z,33.00
2018-07-13T09:03:54.739Z,33.00
2018-07-13T09:06:23.403Z,31.70
2018-07-13T09:08:52.086Z,31.20
2018-07-13T09:11:21.697Z,30.90
2018-07-13T09:13:50.615Z,30.80
2018-07-13T09:16:20.095Z,31.80
2018-07-13T09:18:48.944Z,33.30
2018-07-13T09:21:17.702Z,34.30
2018-07-13T09:23:46.205Z,34.30
2018-07-13T09:26:14.775Z,34.20
2018-07-13T09:28:43.251Z,33.70
2018-07-13T09:31:11.808Z,33.70
2018-07-13T09:33:40.569Z,32.70
2018-07-13T09:36:09.531Z,31.00
2018-07-13T09:38:38.395Z,30.00
2018-07-13T09:41:07.237Z,29.20
2018-07-13T09:43:36.757Z,28.40
2018-07-13T09:46:07.883Z,27.80
2018-07-13T09:48:37.809Z,26.60
2018-07-13T09:51:06.638Z,26.10
2018-07-13T09:53:35.988Z,26.00
2018-07-13T09:56:05.337Z,25.40
2018-07-13T09:58:37.863Z,25.50
2018-07-13T10:01:12.219Z,25.90
2018-07-13T10:03:40.945Z,26.20
2018-07-13T10:06:11.293Z,26.20
2018-07-13T10:08:39.928Z,25.30
2018-07-13T10:11:08.607Z,25.00
2018-07-13T10:13:37.419Z,24.90
2018-07-13T10:16:05.962Z,24.70
2018-07-13T10:18:34.528Z,25.10
2018-07-13T10:21:04.024Z,24.90
2018-07-13T10:23:33.204Z,25.40
2018-07-13T10:26:06.107Z,25.10
2018-07-13T10:28:36.724Z,24.50
2018-07-13T10:31:06.344Z,24.80
2018-07-13T10:33:36.092Z,24.90
2018-07-13T10:36:05.652Z,25.30
2018-07-13T10:38:34.312Z,25.90
2018-07-13T10:41:02.914Z,26.30
2018-07-13T10:43:31.811Z,26.60
2018-07-13T10:46:00.447Z,27.80
2018-07-13T10:48:29.158Z,28.10
2018-07-13T10:50:57.875Z,27.40
2018-07-13T10:53:26.572Z,27.00
2018-07-13T10:55:55.193Z,26.90
2018-07-13T10:58:24.421Z,25.80
2018-07-13T11:00:53.534Z,24.60
2018-07-13T11:03:22.426Z,23.90
2018-07-13T11:05:51.751Z,25.20
2018-07-13T11:08:20.854Z,24.60
2018-07-13T11:10:49.914Z,24.00
2018-07-13T11:13:18.880Z,24.30
2018-07-13T11:15:47.698Z,24.10
2018-07-13T11:18:16.430Z,24.20
2018-07-13T11:20:45.380Z,24.40
2018-07-13T11:23:14.388Z,25.20
2018-07-13T11:25:43.224Z,25.70
2018-07-13T11:28:12.006Z,24.80
2018-07-13T11:30:40.802Z,24.00
2018-07-13T11:33:09.874Z,24.30
2018-07-13T11:35:38.685Z,24.50
2018-07-13T11:38:07.928Z,25.30
2018-07-13T11:40:36.606Z,26.50
2018-07-13T11:43:05.201Z,28.20
2018-07-13T11:45:33.928Z,29.30
2018-07-13T11:48:02.759Z,30.20
2018-07-13T11:50:31.788Z,30.50
2018-07-13T11:53:00.730Z,30.00
2018-07-13T11:55:29.615Z,28.90
2018-07-13T11:57:58.307Z,28.10
2018-07-13T12:00:27.161Z,28.20
2018-07-13T12:02:55.831Z,27.40
2018-07-13T12:05:24.618Z,27.60
2018-07-13T12:07:54.245Z,27.00
2018-07-13T12:10:23.109Z,25.80
2018-07-13T12:12:56.642Z,25.50
2018-07-13T12:15:25.605Z,25.30
2018-07-13T12:17:54.857Z,26.00
2018-07-13T12:20:23.518Z,26.50
2018-07-13T12:22:52.519Z,26.70
2018-07-13T12:25:22.129Z,25.80
2018-07-13T12:27:51.261Z,25.90
2018-07-13T12:30:19.965Z,26.30
2018-07-13T12:32:48.799Z,26.80
2018-07-13T12:35:17.463Z,27.30
2018-07-13T12:37:46.059Z,27.40
2018-07-13T12:40:14.704Z,27.30
2018-07-13T12:42:43.495Z,27.10
2018-07-13T12:45:12.498Z,26.30
2018-07-13T12:47:41.166Z,25.80
2018-07-13T12:50:09.772Z,24.70
2018-07-13T12:52:38.463Z,24.20
2018-07-13T12:55:07.293Z,23.70
2018-07-13T12:57:35.978Z,23.40
2018-07-13T13:02:39.656Z,23.20
2018-07-13T13:05:09.424Z,22.60
2018-07-13T13:07:38.184Z,21.90
2018-07-13T13:12:35.286Z,21.30
2018-07-13T13:15:04.037Z,21.30
2018-07-13T13:17:32.808Z,21.20
2018-07-13T13:20:01.451Z,21.80
2018-07-13T13:22:30.106Z,22.40
2018-07-13T13:25:01.648Z,22.40
2018-07-13T13:27:30.342Z,22.60
2018-07-13T13:29:59.095Z,22.30
2018-07-13T13:32:27.703Z,22.30
2018-07-13T13:34:56.257Z,22.60
2018-07-13T13:37:24.907Z,22.30
2018-07-13T13:39:53.830Z,21.80
2018-07-13T13:42:22.572Z,21.80
2018-07-13T13:44:51.556Z,22.90
2018-07-13T13:47:20.400Z,24.00
2018-07-13T13:49:49.492Z,25.40
2018-07-13T13:54:46.764Z,26.80
2018-07-13T13:57:15.760Z,27.30
2018-07-13T13:59:45.243Z,27.70
2018-07-13T14:02:16.656Z,28.50
2018-07-13T14:04:49.292Z,28.10
2018-07-13T14:07:18.352Z,28.20
2018-07-13T14:09:47.032Z,27.70
2018-07-13T14:12:15.742Z,27.50
2018-07-13T14:14:44.228Z,28.10
2018-07-13T14:17:12.805Z,28.50
2018-07-13T14:19:42.257Z,28.40
2018-07-13T14:22:11.044Z,27.90
2018-07-13T14:24:39.640Z,28.20
2018-07-13T14:27:08.353Z,28.60
2018-07-13T14:29:36.845Z,28.90
2018-07-13T14:32:05.950Z,29.00
2018-07-13T14:34:34.827Z,29.40
2018-07-13T14:37:09.939Z,29.70
2018-07-13T14:39:44.052Z,29.80
2018-07-13T14:42:12.594Z,29.80
2018-07-13T14:44:41.114Z,28.90
2018-07-13T14:49:38.712Z,28.90
2018-07-13T14:52:08.699Z,29.00
2018-07-13T14:54:38.219Z,29.50
2018-07-13T14:59:36.456Z,30.00
2018-07-13T15:02:05.212Z,30.10
2018-07-13T15:04:33.817Z,29.80
2018-07-13T15:07:02.351Z,29.70
2018-07-13T15:09:30.888Z,30.00
2018-07-13T15:11:59.404Z,30.50
2018-07-13T15:14:28.041Z,30.10
2018-07-13T15:16:56.524Z,30.50
2018-07-13T15:19:25.151Z,31.00
2018-07-13T15:21:53.686Z,31.70
2018-07-13T15:24:22.308Z,31.90
2018-07-13T15:26:51.299Z,32.30
2018-07-13T15:29:19.942Z,32.40
2018-07-13T15:31:48.575Z,32.40
2018-07-13T15:34:18.802Z,32.90
2018-07-13T15:36:47.857Z,33.80
2018-07-13T15:39:17.894Z,35.90
2018-07-13T15:41:46.574Z,37.30
2018-07-13T15:44:15.295Z,38.30
2018-07-13T15:46:44.301Z,39.00
2018-07-13T15:49:16.324Z,39.30
2018-07-13T15:51:44.967Z,40.10
2018-07-13T15:54:13.516Z,40.40
2018-07-13T15:56:42.315Z,40.50
2018-07-13T15:59:11.219Z,40.70
2018-07-13T16:01:39.853Z,41.50
2018-07-13T16:04:09.662Z,41.10
2018-07-13T16:06:38.468Z,41.40
2018-07-13T16:09:07.072Z,42.00
2018-07-13T16:11:35.843Z,42.40
2018-07-13T16:14:04.410Z,43.00
2018-07-13T16:16:33.113Z,43.60
2018-07-13T16:19:01.751Z,44.10
2018-07-13T16:21:30.483Z,44.60
2018-07-13T16:23:59.174Z,45.10
2018-07-13T16:26:28.348Z,45.30
2018-07-13T16:28:58.327Z,45.50
2018-07-13T16:31:26.913Z,45.60
2018-07-13T16:33:56.035Z,45.70
2018-07-13T16:36:24.653Z,45.80
2018-07-13T16:38:53.339Z,45.80
2018-07-13T16:41:22.042Z,46.10
2018-07-13T16:43:50.728Z,46.10
2018-07-13T16:46:19.467Z,46.00
2018-07-13T16:48:48.049Z,45.90
2018-07-13T16:51:16.630Z,45.80
2018-07-13T16:53:45.211Z,45.80
2018-07-13T16:56:14.535Z,45.70
2018-07-13T16:58:43.337Z,45.80
2018-07-13T17:01:12.000Z,45.60
2018-07-13T17:03:48.304Z,45.80
2018-07-13T17:06:16.881Z,46.00
2018-07-13T17:08:45.687Z,46.40
2018-07-13T17:11:14.446Z,46.60
2018-07-13T17:13:43.049Z,46.40
2018-07-13T17:16:11.593Z,46.70
2018-07-13T17:18:40.142Z,46.80
2018-07-13T17:21:08.694Z,46.90
2018-07-13T17:23:37.415Z,46.40
2018-07-13T17:26:06.955Z,46.40
2018-07-13T17:28:35.534Z,46.40
2018-07-13T17:31:04.737Z,46.30
2018-07-13T17:33:33.381Z,46.40
2018-07-13T17:36:01.914Z,46.60
2018-07-13T17:38:30.700Z,46.60
2018-07-13T17:41:00.600Z,46.80
2018-07-13T17:43:29.336Z,47.20
2018-07-13T17:45:57.980Z,47.50
2018-07-13T17:48:31.568Z,47.80
2018-07-13T17:51:00.150Z,48.20
2018-07-13T17:53:28.738Z,48.70
2018-07-13T17:55:57.314Z,48.90
2018-07-13T17:58:26.004Z,49.00
2018-07-13T18:00:55.279Z,49.20
2018-07-13T18:03:24.249Z,49.50
2018-07-13T18:11:10.756Z,50.40
2018-07-13T18:13:44.186Z,50.40
2018-07-13T18:16:16.664Z,50.60
2018-07-13T18:18:46.587Z,50.90
2018-07-13T18:50:35.194Z,52.20
2018-07-13T18:53:03.703Z,52.50
2018-07-13T18:55:32.224Z,52.40
2018-07-13T18:58:00.648Z,52.70
2018-07-13T19:00:29.377Z,52.70
2018-07-13T19:02:57.907Z,53.60
2018-07-13T19:05:26.406Z,53.20
2018-07-13T19:07:55.040Z,53.50
2018-07-13T19:10:23.577Z,53.50
2018-07-13T19:12:52.157Z,53.70
2018-07-13T19:15:20.692Z,53.90
2018-07-13T19:17:49.192Z,54.20
2018-07-13T19:20:17.674Z,54.10
2018-07-13T19:22:46.367Z,54.50
2018-07-13T19:25:14.714Z,54.70
2018-07-13T19:27:43.236Z,54.90
2018-07-13T19:30:11.644Z,55.60
2018-07-13T19:32:40.233Z,55.20
2018-07-13T19:35:08.786Z,55.30
2018-07-13T19:37:37.488Z,55.40
2018-07-13T19:40:05.972Z,55.60
2018-07-13T19:42:34.446Z,56.30
2018-07-13T19:45:04.118Z,56.40
2018-07-13T19:47:32.650Z,56.40
2018-07-13T19:50:01.120Z,56.60
2018-07-13T19:52:29.716Z,56.50
2018-07-13T19:54:58.609Z,56.50
2018-07-13T19:57:27.208Z,56.60
2018-07-13T19:59:55.782Z,56.60
2018-07-13T20:05:27.793Z,57.00
2018-07-13T20:07:56.483Z,57.50
2018-07-13T20:10:25.092Z,57.80
2018-07-13T20:12:53.850Z,58.00
2018-07-13T20:20:19.129Z,59.00
2018-07-13T20:22:47.670Z,59.30
2018-07-13T20:25:16.211Z,60.20
2018-07-13T20:27:44.651Z,60.70
2018-07-13T20:30:13.182Z,61.00
2018-07-13T20:32:42.117Z,61.40
2018-07-13T20:35:10.799Z,61.00
2018-07-13T20:37:39.457Z,60.90
2018-07-13T20:40:08.034Z,64.10
2018-07-13T20:42:36.821Z,65.70
2018-07-13T20:45:05.390Z,68.10
2018-07-13T20:47:34.013Z,71.30
2018-07-13T20:50:02.626Z,74.00
2018-07-13T20:52:31.208Z,76.40
2018-07-13T20:54:59.715Z,82.00
2018-07-13T20:57:28.322Z,84.50
2018-07-13T20:59:56.867Z,89.30
2018-07-13T21:02:25.501Z,90.70
2018-07-13T21:04:54.056Z,90.70
2018-07-13T21:07:22.661Z,91.20
2018-07-13T21:09:51.204Z,91.70
2018-07-13T21:12:19.925Z,92.50
2018-07-13T21:17:16.634Z,95.40
2018-07-13T21:19:45.259Z,96.00
2018-07-13T21:22:13.803Z,96.50
2018-07-13T21:24:42.437Z,98.10
2018-07-13T21:27:11.455Z,98.80
2018-07-13T21:29:39.996Z,99.90
2018-07-13T21:32:08.589Z,99.90
2018-07-13T21:34:37.055Z,99.90
2018-07-13T21:37:05.612Z,99.90
2018-07-13T21:39:34.103Z,99.90
2018-07-13T21:42:02.732Z,99.90
2018-07-13T21:44:31.237Z,99.90
2018-07-13T21:46:59.777Z,99.90
2018-07-13T21:49:28.341Z,99.90
2018-07-13T21:51:56.836Z,99.90
2018-07-13T21:54:25.383Z,99.90
2018-07-13T21:56:53.909Z,99.90
2018-07-13T21:59:22.527Z,99.90
2018-07-13T22:01:51.121Z,99.90
2018-07-13T22:04:19.514Z,99.90
2018-07-13T22:06:48.025Z,99.90
2018-07-13T22:09:16.844Z,99.90
2018-07-13T22:11:45.522Z,99.90
2018-07-13T22:14:14.056Z,99.90
2018-07-13T22:16:42.671Z,99.90
2018-07-13T22:19:11.213Z,99.90
2018-07-13T22:21:40.392Z,99.90
2018-07-13T22:24:09.211Z,99.90
2018-07-13T22:26:37.755Z,99.90
2018-07-13T22:29:06.314Z,99.90
2018-07-13T22:31:34.897Z,99.90
2018-07-13T22:34:03.419Z,99.90
2018-07-13T22:36:31.953Z,99.90
2018-07-13T22:39:00.539Z,99.90
2018-07-13T22:41:29.340Z,99.90
2018-07-13T22:43:57.864Z,99.90
2018-07-13T22:46:26.364Z,99.90
2018-07-13T22:48:54.900Z,99.90
2018-07-13T22:51:23.465Z,99.90
2018-07-13T22:53:51.948Z,99.90
2018-07-13T22:56:20.471Z,99.90
2018-07-13T22:58:49.123Z,99.90
2018-07-13T23:01:17.778Z,99.90
2018-07-13T23:03:46.251Z,99.90
2018-07-13T23:06:14.828Z,99.90
2018-07-13T23:08:43.293Z,99.90
2018-07-13T23:11:11.858Z,99.90
2018-07-13T23:13:40.354Z,99.90
2018-07-13T23:16:08.840Z,99.90
2018-07-13T23:18:37.296Z,99.90
2018-07-13T23:21:05.860Z,99.90
2018-07-13T23:23:34.474Z,99.90
2018-07-13T23:28:31.355Z,99.90
2018-07-13T23:30:59.929Z,99.90
2018-07-13T23:33:28.491Z,99.90
2018-07-13T23:35:57.024Z,99.90
2018-07-13T23:38:25.780Z,99.90
2018-07-13T23:40:54.399Z,99.90
2018-07-13T23:43:22.989Z,99.90
2018-07-13T23:45:51.492Z,99.90
2018-07-13T23:48:20.106Z,99.90
2018-07-13T23:50:48.685Z,99.90
2018-07-13T23:55:45.541Z,99.90
2018-07-13T23:58:14.141Z,99.90
